sensor_id;sensor_type;location;lat;lon;timestamp;P1;durP1;ratioP1;P2;durP2;ratioP2
73567;SDS011;61847;54.994;73.310;2022-11-20T00:00:04;8.17;;;3.00;;
73567;SDS011;61847;54.994;73.310;2022-11-20T00:02:33;12.83;;;2.73;;
73567;SDS011;61847;54.994;73.310;2022-11-20T00:05:05;8.90;;;2.17;;
73567;SDS011;61847;54.994;73.310;2022-11-20T00:07:39;8.13;;;2.40;;
73567;SDS011;61847;54.994;73.310;2022-11-20T00:10:05;11.60;;;3.93;;
73567;SDS011;61847;54.994;73.310;2022-11-20T00:12:33;11.73;;;3.83;;
73567;SDS011;61847;54.994;73.310;2022-11-20T00:15:00;7.10;;;2.87;;
73567;SDS011;61847;54.994;73.310;2022-11-20T00:17:28;10.10;;;2.80;;
73567;SDS011;61847;54.994;73.310;2022-11-20T00:19:54;7.40;;;2.40;;
73567;SDS011;61847;54.994;73.310;2022-11-20T00:22:33;5.10;;;1.63;;
73567;SDS011;61847;54.994;73.310;2022-11-20T00:25:00;11.07;;;2.57;;
73567;SDS011;61847;54.994;73.310;2022-11-20T00:27:28;8.27;;;2.67;;
73567;SDS011;61847;54.994;73.310;2022-11-20T00:30:05;15.73;;;3.57;;
73567;SDS011;61847;54.994;73.310;2022-11-20T00:32:33;4.77;;;1.90;;
73567;SDS011;61847;54.994;73.310;2022-11-20T00:35:01;5.43;;;2.17;;
73567;SDS011;61847;54.994;73.310;2022-11-20T00:37:29;9.13;;;2.93;;
73567;SDS011;61847;54.994;73.310;2022-11-20T00:39:57;11.43;;;2.87;;
73567;SDS011;61847;54.994;73.310;2022-11-20T00:42:25;7.73;;;2.17;;
73567;SDS011;61847;54.994;73.310;2022-11-20T00:44:53;10.63;;;2.93;;
73567;SDS011;61847;54.994;73.310;2022-11-20T00:47:30;5.67;;;2.03;;
73567;SDS011;61847;54.994;73.310;2022-11-20T00:49:58;13.40;;;3.00;;
73567;SDS011;61847;54.994;73.310;2022-11-20T00:52:27;5.20;;;1.60;;
73567;SDS011;61847;54.994;73.310;2022-11-20T00:54:54;14.03;;;3.10;;
73567;SDS011;61847;54.994;73.310;2022-11-20T00:57:23;11.43;;;3.23;;
73567;SDS011;61847;54.994;73.310;2022-11-20T00:59:51;10.20;;;2.77;;
73567;SDS011;61847;54.994;73.310;2022-11-20T01:02:28;7.53;;;2.43;;
73567;SDS011;61847;54.994;73.310;2022-11-20T01:05:09;8.33;;;2.53;;
73567;SDS011;61847;54.994;73.310;2022-11-20T01:07:45;6.97;;;1.80;;
73567;SDS011;61847;54.994;73.310;2022-11-20T01:10:20;10.73;;;2.53;;
73567;SDS011;61847;54.994;73.310;2022-11-20T01:12:54;8.03;;;2.53;;
73567;SDS011;61847;54.994;73.310;2022-11-20T01:15:39;12.70;;;2.57;;
73567;SDS011;61847;54.994;73.310;2022-11-20T01:18:07;17.67;;;2.53;;
73567;SDS011;61847;54.994;73.310;2022-11-20T01:20:34;13.20;;;2.47;;
73567;SDS011;61847;54.994;73.310;2022-11-20T01:23:04;14.00;;;3.17;;
73567;SDS011;61847;54.994;73.310;2022-11-20T01:25:34;2.80;;;1.30;;
73567;SDS011;61847;54.994;73.310;2022-11-20T01:28:02;7.63;;;2.80;;
73567;SDS011;61847;54.994;73.310;2022-11-20T01:30:30;8.80;;;2.80;;
73567;SDS011;61847;54.994;73.310;2022-11-20T01:32:58;9.63;;;2.33;;
73567;SDS011;61847;54.994;73.310;2022-11-20T01:35:24;8.47;;;1.50;;
73567;SDS011;61847;54.994;73.310;2022-11-20T01:37:55;10.70;;;2.97;;
73567;SDS011;61847;54.994;73.310;2022-11-20T01:40:23;7.10;;;2.43;;
73567;SDS011;61847;54.994;73.310;2022-11-20T01:42:53;13.57;;;2.60;;
73567;SDS011;61847;54.994;73.310;2022-11-20T01:48:35;8.80;;;2.43;;
73567;SDS011;61847;54.994;73.310;2022-11-20T01:51:19;7.37;;;2.07;;
73567;SDS011;61847;54.994;73.310;2022-11-20T01:53:56;5.67;;;2.20;;
73567;SDS011;61847;54.994;73.310;2022-11-20T01:56:37;5.63;;;1.93;;
73567;SDS011;61847;54.994;73.310;2022-11-20T01:59:06;8.47;;;2.10;;
73567;SDS011;61847;54.994;73.310;2022-11-20T02:01:36;5.17;;;2.03;;
73567;SDS011;61847;54.994;73.310;2022-11-20T02:06:51;9.43;;;2.80;;
73567;SDS011;61847;54.994;73.310;2022-11-20T02:09:32;7.57;;;2.50;;
73567;SDS011;61847;54.994;73.310;2022-11-20T02:12:02;7.97;;;2.83;;
73567;SDS011;61847;54.994;73.310;2022-11-20T02:14:42;6.87;;;2.77;;
73567;SDS011;61847;54.994;73.310;2022-11-20T02:17:08;8.70;;;2.13;;
73567;SDS011;61847;54.994;73.310;2022-11-20T02:19:36;4.53;;;0.97;;
73567;SDS011;61847;54.994;73.310;2022-11-20T02:22:08;15.30;;;1.47;;
73567;SDS011;61847;54.994;73.310;2022-11-20T02:24:42;7.40;;;1.70;;
73567;SDS011;61847;54.994;73.310;2022-11-20T02:27:22;5.93;;;1.70;;
73567;SDS011;61847;54.994;73.310;2022-11-20T02:32:31;12.13;;;2.87;;
73567;SDS011;61847;54.994;73.310;2022-11-20T02:35:08;10.23;;;2.70;;
73567;SDS011;61847;54.994;73.310;2022-11-20T02:37:44;9.33;;;3.13;;
73567;SDS011;61847;54.994;73.310;2022-11-20T02:40:24;6.50;;;1.60;;
73567;SDS011;61847;54.994;73.310;2022-11-20T02:42:51;15.07;;;2.97;;
73567;SDS011;61847;54.994;73.310;2022-11-20T02:45:19;15.63;;;3.53;;
73567;SDS011;61847;54.994;73.310;2022-11-20T02:47:52;12.75;;;3.13;;
73567;SDS011;61847;54.994;73.310;2022-11-20T02:50:20;2.63;;;1.20;;
73567;SDS011;61847;54.994;73.310;2022-11-20T02:52:50;7.93;;;2.40;;
73567;SDS011;61847;54.994;73.310;2022-11-20T02:55:17;7.23;;;2.30;;
73567;SDS011;61847;54.994;73.310;2022-11-20T02:57:43;7.30;;;2.00;;
73567;SDS011;61847;54.994;73.310;2022-11-20T03:00:10;5.10;;;1.10;;
73567;SDS011;61847;54.994;73.310;2022-11-20T03:02:38;5.33;;;1.53;;
73567;SDS011;61847;54.994;73.310;2022-11-20T03:05:05;6.53;;;2.03;;
73567;SDS011;61847;54.994;73.310;2022-11-20T03:07:36;8.10;;;2.27;;
73567;SDS011;61847;54.994;73.310;2022-11-20T03:10:05;7.30;;;2.73;;
73567;SDS011;61847;54.994;73.310;2022-11-20T03:12:34;5.57;;;1.83;;
73567;SDS011;61847;54.994;73.310;2022-11-20T03:15:00;6.80;;;1.80;;
73567;SDS011;61847;54.994;73.310;2022-11-20T03:17:27;10.77;;;2.53;;
73567;SDS011;61847;54.994;73.310;2022-11-20T03:19:56;6.03;;;2.20;;
73567;SDS011;61847;54.994;73.310;2022-11-20T03:22:23;6.87;;;1.23;;
73567;SDS011;61847;54.994;73.310;2022-11-20T03:24:51;7.27;;;2.00;;
73567;SDS011;61847;54.994;73.310;2022-11-20T03:27:17;23.30;;;3.27;;
73567;SDS011;61847;54.994;73.310;2022-11-20T03:29:46;11.03;;;2.73;;
73567;SDS011;61847;54.994;73.310;2022-11-20T03:32:23;4.40;;;2.43;;
73567;SDS011;61847;54.994;73.310;2022-11-20T03:34:50;7.87;;;2.27;;
73567;SDS011;61847;54.994;73.310;2022-11-20T03:37:17;8.00;;;1.97;;
73567;SDS011;61847;54.994;73.310;2022-11-20T03:39:56;17.73;;;2.87;;
73567;SDS011;61847;54.994;73.310;2022-11-20T03:42:26;6.30;;;1.70;;
73567;SDS011;61847;54.994;73.310;2022-11-20T03:45:16;13.23;;;2.87;;
73567;SDS011;61847;54.994;73.310;2022-11-20T03:47:44;10.17;;;2.43;;
73567;SDS011;61847;54.994;73.310;2022-11-20T03:50:19;11.87;;;2.83;;
73567;SDS011;61847;54.994;73.310;2022-11-20T03:52:45;12.33;;;3.03;;
73567;SDS011;61847;54.994;73.310;2022-11-20T03:55:12;9.20;;;3.17;;
73567;SDS011;61847;54.994;73.310;2022-11-20T03:57:39;4.70;;;1.23;;
73567;SDS011;61847;54.994;73.310;2022-11-20T04:00:12;10.57;;;3.00;;
73567;SDS011;61847;54.994;73.310;2022-11-20T04:02:51;7.47;;;2.43;;
73567;SDS011;61847;54.994;73.310;2022-11-20T04:07:56;11.70;;;2.83;;
73567;SDS011;61847;54.994;73.310;2022-11-20T04:10:27;12.47;;;2.83;;
73567;SDS011;61847;54.994;73.310;2022-11-20T04:13:04;16.60;;;3.63;;
73567;SDS011;61847;54.994;73.310;2022-11-20T04:15:31;15.93;;;3.80;;
73567;SDS011;61847;54.994;73.310;2022-11-20T04:17:58;9.07;;;2.83;;
73567;SDS011;61847;54.994;73.310;2022-11-20T04:20:27;9.07;;;2.40;;
73567;SDS011;61847;54.994;73.310;2022-11-20T04:22:58;9.70;;;2.33;;
73567;SDS011;61847;54.994;73.310;2022-11-20T04:25:27;16.70;;;3.57;;
73567;SDS011;61847;54.994;73.310;2022-11-20T04:28:07;18.20;;;3.37;;
73567;SDS011;61847;54.994;73.310;2022-11-20T04:30:36;9.60;;;2.00;;
73567;SDS011;61847;54.994;73.310;2022-11-20T04:33:15;12.13;;;2.57;;
73567;SDS011;61847;54.994;73.310;2022-11-20T04:35:59;13.07;;;3.00;;
73567;SDS011;61847;54.994;73.310;2022-11-20T04:38:32;12.53;;;2.27;;
73567;SDS011;61847;54.994;73.310;2022-11-20T04:41:03;5.47;;;1.70;;
73567;SDS011;61847;54.994;73.310;2022-11-20T04:43:36;11.50;;;2.50;;
73567;SDS011;61847;54.994;73.310;2022-11-20T04:46:09;8.27;;;1.88;;
73567;SDS011;61847;54.994;73.310;2022-11-20T04:48:37;12.27;;;2.70;;
73567;SDS011;61847;54.994;73.310;2022-11-20T04:51:16;8.00;;;2.57;;
73567;SDS011;61847;54.994;73.310;2022-11-20T04:53:43;2.53;;;0.80;;
73567;SDS011;61847;54.994;73.310;2022-11-20T04:56:18;7.77;;;1.97;;
73567;SDS011;61847;54.994;73.310;2022-11-20T04:58:45;3.83;;;1.17;;
73567;SDS011;61847;54.994;73.310;2022-11-20T05:01:23;11.03;;;0.90;;
73567;SDS011;61847;54.994;73.310;2022-11-20T05:04:00;8.03;;;2.33;;
73567;SDS011;61847;54.994;73.310;2022-11-20T05:06:28;4.90;;;1.43;;
73567;SDS011;61847;54.994;73.310;2022-11-20T05:08:57;8.20;;;1.67;;
73567;SDS011;61847;54.994;73.310;2022-11-20T05:11:35;6.80;;;1.13;;
73567;SDS011;61847;54.994;73.310;2022-11-20T05:14:05;4.70;;;1.40;;
73567;SDS011;61847;54.994;73.310;2022-11-20T05:16:33;2.13;;;1.07;;
73567;SDS011;61847;54.994;73.310;2022-11-20T05:19:00;0.97;;;0.50;;
73567;SDS011;61847;54.994;73.310;2022-11-20T05:21:29;5.10;;;1.40;;
73567;SDS011;61847;54.994;73.310;2022-11-20T05:24:07;3.33;;;0.80;;
73567;SDS011;61847;54.994;73.310;2022-11-20T05:26:36;5.77;;;1.00;;
73567;SDS011;61847;54.994;73.310;2022-11-20T05:29:03;4.43;;;1.07;;
73567;SDS011;61847;54.994;73.310;2022-11-20T05:31:29;2.23;;;0.70;;
73567;SDS011;61847;54.994;73.310;2022-11-20T05:33:57;1.20;;;0.70;;
73567;SDS011;61847;54.994;73.310;2022-11-20T05:36:24;4.87;;;1.00;;
73567;SDS011;61847;54.994;73.310;2022-11-20T05:38:50;1.23;;;0.60;;
73567;SDS011;61847;54.994;73.310;2022-11-20T05:41:18;6.33;;;0.63;;
73567;SDS011;61847;54.994;73.310;2022-11-20T05:43:47;2.93;;;0.40;;
73567;SDS011;61847;54.994;73.310;2022-11-20T05:46:20;5.00;;;1.08;;
73567;SDS011;61847;54.994;73.310;2022-11-20T05:48:57;1.03;;;0.70;;
73567;SDS011;61847;54.994;73.310;2022-11-20T05:51:26;9.53;;;1.47;;
73567;SDS011;61847;54.994;73.310;2022-11-20T05:53:53;4.20;;;0.90;;
73567;SDS011;61847;54.994;73.310;2022-11-20T05:56:21;3.57;;;1.20;;
73567;SDS011;61847;54.994;73.310;2022-11-20T05:58:49;4.10;;;1.10;;
73567;SDS011;61847;54.994;73.310;2022-11-20T06:01:17;3.07;;;1.00;;
73567;SDS011;61847;54.994;73.310;2022-11-20T06:03:49;2.63;;;0.73;;
73567;SDS011;61847;54.994;73.310;2022-11-20T06:06:20;4.93;;;0.97;;
73567;SDS011;61847;54.994;73.310;2022-11-20T06:08:50;2.70;;;0.65;;
73567;SDS011;61847;54.994;73.310;2022-11-20T06:11:17;8.73;;;0.83;;
73567;SDS011;61847;54.994;73.310;2022-11-20T06:13:44;3.37;;;1.17;;
73567;SDS011;61847;54.994;73.310;2022-11-20T06:16:16;6.47;;;0.73;;
73567;SDS011;61847;54.994;73.310;2022-11-20T06:18:47;1.67;;;0.70;;
73567;SDS011;61847;54.994;73.310;2022-11-20T06:21:17;4.70;;;1.13;;
73567;SDS011;61847;54.994;73.310;2022-11-20T06:23:45;6.10;;;0.80;;
73567;SDS011;61847;54.994;73.310;2022-11-20T06:26:23;5.20;;;0.77;;
73567;SDS011;61847;54.994;73.310;2022-11-20T06:28:55;3.25;;;0.70;;
73567;SDS011;61847;54.994;73.310;2022-11-20T06:31:23;1.47;;;0.80;;
73567;SDS011;61847;54.994;73.310;2022-11-20T06:33:51;3.40;;;1.10;;
73567;SDS011;61847;54.994;73.310;2022-11-20T06:36:21;6.60;;;1.47;;
73567;SDS011;61847;54.994;73.310;2022-11-20T06:38:53;10.80;;;1.07;;
73567;SDS011;61847;54.994;73.310;2022-11-20T06:41:21;3.50;;;0.67;;
73567;SDS011;61847;54.994;73.310;2022-11-20T06:43:50;5.27;;;1.40;;
73567;SDS011;61847;54.994;73.310;2022-11-20T06:46:18;2.63;;;0.63;;
73567;SDS011;61847;54.994;73.310;2022-11-20T06:48:55;2.57;;;0.80;;
73567;SDS011;61847;54.994;73.310;2022-11-20T06:51:23;2.10;;;0.83;;
73567;SDS011;61847;54.994;73.310;2022-11-20T06:53:53;2.00;;;0.77;;
73567;SDS011;61847;54.994;73.310;2022-11-20T06:56:21;0.87;;;0.40;;
73567;SDS011;61847;54.994;73.310;2022-11-20T06:58:49;8.90;;;2.07;;
73567;SDS011;61847;54.994;73.310;2022-11-20T07:01:15;8.53;;;1.87;;
73567;SDS011;61847;54.994;73.310;2022-11-20T07:03:43;2.53;;;1.03;;
73567;SDS011;61847;54.994;73.310;2022-11-20T07:06:10;4.90;;;0.63;;
73567;SDS011;61847;54.994;73.310;2022-11-20T07:08:40;8.80;;;1.27;;
73567;SDS011;61847;54.994;73.310;2022-11-20T07:11:06;2.77;;;0.57;;
73567;SDS011;61847;54.994;73.310;2022-11-20T07:13:34;2.73;;;0.70;;
73567;SDS011;61847;54.994;73.310;2022-11-20T07:16:02;1.27;;;0.50;;
73567;SDS011;61847;54.994;73.310;2022-11-20T07:18:31;0.57;;;0.27;;
73567;SDS011;61847;54.994;73.310;2022-11-20T07:21:00;2.00;;;0.77;;
73567;SDS011;61847;54.994;73.310;2022-11-20T07:23:28;1.87;;;0.60;;
73567;SDS011;61847;54.994;73.310;2022-11-20T07:25:55;2.63;;;1.00;;
73567;SDS011;61847;54.994;73.310;2022-11-20T07:28:24;4.67;;;1.20;;
73567;SDS011;61847;54.994;73.310;2022-11-20T07:30:52;3.27;;;1.00;;
73567;SDS011;61847;54.994;73.310;2022-11-20T07:33:20;8.03;;;1.20;;
73567;SDS011;61847;54.994;73.310;2022-11-20T07:35:50;6.03;;;1.03;;
73567;SDS011;61847;54.994;73.310;2022-11-20T07:38:17;4.63;;;1.50;;
73567;SDS011;61847;54.994;73.310;2022-11-20T07:40:45;2.30;;;1.23;;
73567;SDS011;61847;54.994;73.310;2022-11-20T07:43:17;7.53;;;1.17;;
73567;SDS011;61847;54.994;73.310;2022-11-20T07:45:43;8.57;;;1.10;;
73567;SDS011;61847;54.994;73.310;2022-11-20T07:48:19;2.07;;;0.80;;
73567;SDS011;61847;54.994;73.310;2022-11-20T07:50:48;2.00;;;0.60;;
73567;SDS011;61847;54.994;73.310;2022-11-20T07:53:16;0.50;;;0.50;;
73567;SDS011;61847;54.994;73.310;2022-11-20T07:55:46;3.43;;;1.50;;
73567;SDS011;61847;54.994;73.310;2022-11-20T07:58:13;3.33;;;0.70;;
73567;SDS011;61847;54.994;73.310;2022-11-20T08:00:43;4.03;;;0.97;;
73567;SDS011;61847;54.994;73.310;2022-11-20T08:03:10;2.53;;;1.20;;
73567;SDS011;61847;54.994;73.310;2022-11-20T08:05:36;6.30;;;1.47;;
73567;SDS011;61847;54.994;73.310;2022-11-20T08:08:03;6.20;;;0.80;;
73567;SDS011;61847;54.994;73.310;2022-11-20T08:10:32;2.97;;;1.10;;
73567;SDS011;61847;54.994;73.310;2022-11-20T08:12:58;2.17;;;0.60;;
73567;SDS011;61847;54.994;73.310;2022-11-20T08:15:47;2.27;;;0.93;;
73567;SDS011;61847;54.994;73.310;2022-11-20T08:18:20;4.10;;;1.20;;
73567;SDS011;61847;54.994;73.310;2022-11-20T08:20:47;1.67;;;0.60;;
73567;SDS011;61847;54.994;73.310;2022-11-20T08:23:23;6.00;;;0.90;;
73567;SDS011;61847;54.994;73.310;2022-11-20T08:26:02;3.07;;;0.87;;
73567;SDS011;61847;54.994;73.310;2022-11-20T08:28:31;8.43;;;1.37;;
73567;SDS011;61847;54.994;73.310;2022-11-20T08:31:02;10.57;;;2.30;;
73567;SDS011;61847;54.994;73.310;2022-11-20T08:33:29;4.33;;;1.17;;
73567;SDS011;61847;54.994;73.310;2022-11-20T08:36:23;3.23;;;1.00;;
73567;SDS011;61847;54.994;73.310;2022-11-20T08:39:03;3.17;;;1.13;;
73567;SDS011;61847;54.994;73.310;2022-11-20T08:41:42;2.67;;;0.70;;
73567;SDS011;61847;54.994;73.310;2022-11-20T08:44:13;5.72;;;1.08;;
73567;SDS011;61847;54.994;73.310;2022-11-20T08:46:47;13.33;;;0.87;;
73567;SDS011;61847;54.994;73.310;2022-11-20T08:49:26;6.77;;;1.27;;
73567;SDS011;61847;54.994;73.310;2022-11-20T08:51:55;4.23;;;1.27;;
73567;SDS011;61847;54.994;73.310;2022-11-20T08:54:36;3.10;;;0.80;;
73567;SDS011;61847;54.994;73.310;2022-11-20T08:57:04;5.83;;;1.33;;
73567;SDS011;61847;54.994;73.310;2022-11-20T08:59:30;6.10;;;1.20;;
73567;SDS011;61847;54.994;73.310;2022-11-20T09:01:59;8.43;;;1.33;;
73567;SDS011;61847;54.994;73.310;2022-11-20T09:04:27;7.47;;;2.07;;
73567;SDS011;61847;54.994;73.310;2022-11-20T09:06:59;6.83;;;2.07;;
73567;SDS011;61847;54.994;73.310;2022-11-20T09:09:37;10.67;;;1.30;;
73567;SDS011;61847;54.994;73.310;2022-11-20T09:12:08;10.17;;;2.13;;
73567;SDS011;61847;54.994;73.310;2022-11-20T09:14:51;7.43;;;1.10;;
73567;SDS011;61847;54.994;73.310;2022-11-20T09:17:21;10.33;;;1.77;;
73567;SDS011;61847;54.994;73.310;2022-11-20T09:19:49;9.87;;;1.60;;
73567;SDS011;61847;54.994;73.310;2022-11-20T09:22:16;11.83;;;2.03;;
73567;SDS011;61847;54.994;73.310;2022-11-20T09:24:45;5.53;;;1.33;;
73567;SDS011;61847;54.994;73.310;2022-11-20T09:27:17;14.25;;;2.42;;
73567;SDS011;61847;54.994;73.310;2022-11-20T09:29:48;12.67;;;2.30;;
73567;SDS011;61847;54.994;73.310;2022-11-20T09:32:15;7.63;;;1.93;;
73567;SDS011;61847;54.994;73.310;2022-11-20T09:34:43;7.77;;;2.33;;
73567;SDS011;61847;54.994;73.310;2022-11-20T09:37:16;3.30;;;0.93;;
73567;SDS011;61847;54.994;73.310;2022-11-20T09:39:44;11.27;;;1.63;;
73567;SDS011;61847;54.994;73.310;2022-11-20T09:45:13;4.43;;;1.23;;
73567;SDS011;61847;54.994;73.310;2022-11-20T09:50:36;5.90;;;1.80;;
73567;SDS011;61847;54.994;73.310;2022-11-20T09:53:44;3.83;;;1.37;;
73567;SDS011;61847;54.994;73.310;2022-11-20T09:56:21;6.67;;;1.90;;
73567;SDS011;61847;54.994;73.310;2022-11-20T09:58:51;3.43;;;1.10;;
73567;SDS011;61847;54.994;73.310;2022-11-20T10:01:26;7.43;;;1.37;;
73567;SDS011;61847;54.994;73.310;2022-11-20T10:04:10;19.80;;;5.03;;
73567;SDS011;61847;54.994;73.310;2022-11-20T10:09:37;5.30;;;1.60;;
73567;SDS011;61847;54.994;73.310;2022-11-20T10:15:33;2.70;;;1.10;;
73567;SDS011;61847;54.994;73.310;2022-11-20T10:18:21;4.25;;;1.33;;
73567;SDS011;61847;54.994;73.310;2022-11-20T10:29:42;7.43;;;1.37;;
73567;SDS011;61847;54.994;73.310;2022-11-20T10:32:19;5.17;;;1.33;;
73567;SDS011;61847;54.994;73.310;2022-11-20T10:34:54;7.10;;;2.00;;
73567;SDS011;61847;54.994;73.310;2022-11-20T10:37:59;4.40;;;1.67;;
73567;SDS011;61847;54.994;73.310;2022-11-20T10:40:38;4.33;;;1.60;;
73567;SDS011;61847;54.994;73.310;2022-11-20T10:48:34;1.90;;;0.93;;
73567;SDS011;61847;54.994;73.310;2022-11-20T10:53:56;4.20;;;0.90;;
73567;SDS011;61847;54.994;73.310;2022-11-20T10:57:12;2.10;;;0.80;;
73567;SDS011;61847;54.994;73.310;2022-11-20T11:02:34;6.43;;;1.40;;
73567;SDS011;61847;54.994;73.310;2022-11-20T11:08:00;4.13;;;1.27;;
73567;SDS011;61847;54.994;73.310;2022-11-20T11:13:29;3.60;;;1.10;;
73567;SDS011;61847;54.994;73.310;2022-11-20T11:15:58;2.57;;;1.13;;
73567;SDS011;61847;54.994;73.310;2022-11-20T11:18:32;1.77;;;0.57;;
73567;SDS011;61847;54.994;73.310;2022-11-20T11:21:00;3.00;;;1.20;;
73567;SDS011;61847;54.994;73.310;2022-11-20T11:23:36;5.30;;;1.80;;
73567;SDS011;61847;54.994;73.310;2022-11-20T11:26:23;3.27;;;1.17;;
73567;SDS011;61847;54.994;73.310;2022-11-20T11:29:02;1.93;;;0.83;;
73567;SDS011;61847;54.994;73.310;2022-11-20T11:31:39;6.23;;;1.63;;
73567;SDS011;61847;54.994;73.310;2022-11-20T11:34:13;2.60;;;0.90;;
73567;SDS011;61847;54.994;73.310;2022-11-20T11:36:49;9.33;;;0.93;;
73567;SDS011;61847;54.994;73.310;2022-11-20T11:39:23;2.37;;;1.13;;
73567;SDS011;61847;54.994;73.310;2022-11-20T11:42:04;11.03;;;2.10;;
73567;SDS011;61847;54.994;73.310;2022-11-20T11:44:31;9.23;;;1.53;;
73567;SDS011;61847;54.994;73.310;2022-11-20T11:50:22;7.63;;;1.17;;
73567;SDS011;61847;54.994;73.310;2022-11-20T11:55:46;7.73;;;1.67;;
73567;SDS011;61847;54.994;73.310;2022-11-20T12:07:15;5.90;;;1.77;;
73567;SDS011;61847;54.994;73.310;2022-11-20T12:13:01;8.23;;;1.75;;
73567;SDS011;61847;54.994;73.310;2022-11-20T12:15:38;6.83;;;2.10;;
73567;SDS011;61847;54.994;73.310;2022-11-20T12:18:18;5.77;;;1.73;;
73567;SDS011;61847;54.994;73.310;2022-11-20T12:38:04;7.67;;;1.03;;
73567;SDS011;61847;54.994;73.310;2022-11-20T12:41:09;5.40;;;1.40;;
73567;SDS011;61847;54.994;73.310;2022-11-20T12:47:57;8.57;;;2.20;;
73567;SDS011;61847;54.994;73.310;2022-11-20T12:53:25;7.43;;;1.60;;
73567;SDS011;61847;54.994;73.310;2022-11-20T13:08:01;8.87;;;1.70;;
73567;SDS011;61847;54.994;73.310;2022-11-20T13:13:15;4.30;;;1.50;;
73567;SDS011;61847;54.994;73.310;2022-11-20T13:16:07;4.93;;;2.25;;
73567;SDS011;61847;54.994;73.310;2022-11-20T13:18:40;6.07;;;2.07;;
73567;SDS011;61847;54.994;73.310;2022-11-20T13:21:15;0.90;;;0.50;;
73567;SDS011;61847;54.994;73.310;2022-11-20T13:24:03;4.33;;;1.80;;
73567;SDS011;61847;54.994;73.310;2022-11-20T13:29:36;6.67;;;2.20;;
73567;SDS011;61847;54.994;73.310;2022-11-20T13:34:56;4.67;;;2.10;;
73567;SDS011;61847;54.994;73.310;2022-11-20T13:37:33;7.38;;;1.58;;
73567;SDS011;61847;54.994;73.310;2022-11-20T13:42:44;1.87;;;1.03;;
73567;SDS011;61847;54.994;73.310;2022-11-20T13:45:24;10.57;;;2.33;;
73567;SDS011;61847;54.994;73.310;2022-11-20T13:47:52;2.93;;;1.30;;
73567;SDS011;61847;54.994;73.310;2022-11-20T13:50:21;6.20;;;1.87;;
73567;SDS011;61847;54.994;73.310;2022-11-20T13:55:56;3.97;;;1.60;;
73567;SDS011;61847;54.994;73.310;2022-11-20T14:01:23;5.60;;;1.93;;
73567;SDS011;61847;54.994;73.310;2022-11-20T14:04:06;9.83;;;2.00;;
73567;SDS011;61847;54.994;73.310;2022-11-20T14:06:43;6.73;;;2.50;;
73567;SDS011;61847;54.994;73.310;2022-11-20T14:09:34;3.67;;;1.57;;
73567;SDS011;61847;54.994;73.310;2022-11-20T14:12:02;10.77;;;1.83;;
73567;SDS011;61847;54.994;73.310;2022-11-20T14:14:31;6.37;;;1.60;;
73567;SDS011;61847;54.994;73.310;2022-11-20T14:17:05;9.90;;;2.83;;
73567;SDS011;61847;54.994;73.310;2022-11-20T14:19:42;8.37;;;2.43;;
73567;SDS011;61847;54.994;73.310;2022-11-20T14:22:20;10.23;;;3.57;;
73567;SDS011;61847;54.994;73.310;2022-11-20T14:24:48;7.40;;;2.43;;
73567;SDS011;61847;54.994;73.310;2022-11-20T14:27:28;9.10;;;2.57;;
73567;SDS011;61847;54.994;73.310;2022-11-20T14:30:05;8.10;;;2.53;;
73567;SDS011;61847;54.994;73.310;2022-11-20T14:32:41;2.87;;;1.50;;
73567;SDS011;61847;54.994;73.310;2022-11-20T14:35:13;3.90;;;1.77;;
73567;SDS011;61847;54.994;73.310;2022-11-20T14:37:49;6.87;;;1.93;;
73567;SDS011;61847;54.994;73.310;2022-11-20T14:40:22;5.13;;;1.93;;
73567;SDS011;61847;54.994;73.310;2022-11-20T14:43:15;4.50;;;1.50;;
73567;SDS011;61847;54.994;73.310;2022-11-20T14:45:48;13.43;;;2.60;;
73567;SDS011;61847;54.994;73.310;2022-11-20T14:48:43;6.93;;;2.20;;
73567;SDS011;61847;54.994;73.310;2022-11-20T14:51:35;8.50;;;2.50;;
73567;SDS011;61847;54.994;73.310;2022-11-20T14:54:18;10.17;;;2.63;;
73567;SDS011;61847;54.994;73.310;2022-11-20T14:57:02;14.40;;;3.03;;
73567;SDS011;61847;54.994;73.310;2022-11-20T14:59:40;8.60;;;2.77;;
73567;SDS011;61847;54.994;73.310;2022-11-20T15:02:09;11.37;;;2.23;;
73567;SDS011;61847;54.994;73.310;2022-11-20T15:05:05;5.47;;;1.73;;
73567;SDS011;61847;54.994;73.310;2022-11-20T15:07:38;10.55;;;2.88;;
73567;SDS011;61847;54.994;73.310;2022-11-20T15:10:24;7.53;;;2.37;;
73567;SDS011;61847;54.994;73.310;2022-11-20T15:13:00;7.87;;;2.40;;
73567;SDS011;61847;54.994;73.310;2022-11-20T15:15:31;7.33;;;2.13;;
73567;SDS011;61847;54.994;73.310;2022-11-20T15:18:04;7.57;;;2.13;;
73567;SDS011;61847;54.994;73.310;2022-11-20T15:20:31;11.63;;;2.63;;
73567;SDS011;61847;54.994;73.310;2022-11-20T15:23:07;12.53;;;2.90;;
73567;SDS011;61847;54.994;73.310;2022-11-20T15:25:41;10.53;;;2.27;;
73567;SDS011;61847;54.994;73.310;2022-11-20T15:28:20;8.80;;;2.40;;
73567;SDS011;61847;54.994;73.310;2022-11-20T15:31:02;11.37;;;3.13;;
73567;SDS011;61847;54.994;73.310;2022-11-20T15:33:33;4.00;;;2.03;;
73567;SDS011;61847;54.994;73.310;2022-11-20T15:36:00;8.03;;;2.23;;
73567;SDS011;61847;54.994;73.310;2022-11-20T15:38:28;6.17;;;1.80;;
73567;SDS011;61847;54.994;73.310;2022-11-20T15:41:04;10.47;;;2.73;;
73567;SDS011;61847;54.994;73.310;2022-11-20T15:43:50;9.50;;;3.30;;
73567;SDS011;61847;54.994;73.310;2022-11-20T15:46:22;7.97;;;2.33;;
73567;SDS011;61847;54.994;73.310;2022-11-20T15:48:54;8.07;;;2.40;;
73567;SDS011;61847;54.994;73.310;2022-11-20T15:51:30;12.53;;;3.33;;
73567;SDS011;61847;54.994;73.310;2022-11-20T15:54:18;13.70;;;3.73;;
73567;SDS011;61847;54.994;73.310;2022-11-20T15:56:47;11.17;;;3.17;;
73567;SDS011;61847;54.994;73.310;2022-11-20T15:59:14;8.70;;;2.33;;
73567;SDS011;61847;54.994;73.310;2022-11-20T16:01:41;7.40;;;2.17;;
73567;SDS011;61847;54.994;73.310;2022-11-20T16:04:12;7.83;;;3.20;;
73567;SDS011;61847;54.994;73.310;2022-11-20T16:06:44;7.70;;;2.60;;
73567;SDS011;61847;54.994;73.310;2022-11-20T16:09:21;7.90;;;2.73;;
73567;SDS011;61847;54.994;73.310;2022-11-20T16:11:59;6.03;;;2.07;;
73567;SDS011;61847;54.994;73.310;2022-11-20T16:14:26;12.20;;;3.60;;
73567;SDS011;61847;54.994;73.310;2022-11-20T16:17:13;11.70;;;3.17;;
73567;SDS011;61847;54.994;73.310;2022-11-20T16:19:50;15.90;;;2.87;;
73567;SDS011;61847;54.994;73.310;2022-11-20T16:22:20;10.20;;;3.27;;
73567;SDS011;61847;54.994;73.310;2022-11-20T16:24:47;9.47;;;2.53;;
73567;SDS011;61847;54.994;73.310;2022-11-20T16:27:24;13.23;;;3.40;;
73567;SDS011;61847;54.994;73.310;2022-11-20T16:30:08;8.53;;;2.30;;
73567;SDS011;61847;54.994;73.310;2022-11-20T16:32:37;11.53;;;2.93;;
73567;SDS011;61847;54.994;73.310;2022-11-20T16:35:10;7.18;;;2.50;;
73567;SDS011;61847;54.994;73.310;2022-11-20T16:37:47;10.30;;;2.70;;
73567;SDS011;61847;54.994;73.310;2022-11-20T16:40:18;7.13;;;2.67;;
73567;SDS011;61847;54.994;73.310;2022-11-20T16:42:45;4.97;;;1.57;;
73567;SDS011;61847;54.994;73.310;2022-11-20T16:45:13;5.13;;;2.00;;
73567;SDS011;61847;54.994;73.310;2022-11-20T16:47:41;11.43;;;3.07;;
73567;SDS011;61847;54.994;73.310;2022-11-20T16:50:19;8.53;;;2.97;;
73567;SDS011;61847;54.994;73.310;2022-11-20T16:52:57;4.87;;;1.87;;
73567;SDS011;61847;54.994;73.310;2022-11-20T16:55:35;9.50;;;2.73;;
73567;SDS011;61847;54.994;73.310;2022-11-20T16:58:13;9.40;;;2.53;;
73567;SDS011;61847;54.994;73.310;2022-11-20T17:00:46;9.88;;;2.80;;
73567;SDS011;61847;54.994;73.310;2022-11-20T17:03:14;7.10;;;1.97;;